Slide Mountain Weather observations

Data are for 10 minute period ending at time listed.
 Day   Time   Solar   Ave.   Ave.  Ave.  Vector  Max.    Baro.  
  of    of     Rad.   Air    Rel.  Wind   Wind   Wind   Press.  
Year   Day            Temp.  Hum.  Speed  Dir.   Gust           
2015   (PST)  Kw/m2    F      %     mph   deg.    mph     mb.   
-----------------------------------------------------------------
 209   13:50   0.79   59.1    23    6.7   146     13.3    720.2 
 209   14:00   0.78   58.8    23    6.7   122     19.5    720.1 
 209   14:10   0.76   57.2    24    8.8   106     16.7    720.1 
 209   14:20   0.75   59.5    23    6.6   130     11.7    720.1 
 209   14:30   0.73   60.0    22    8.3   117     18.2    720.1 
 209   14:40   0.71   58.9    23    8.1   112     15.3    720.1 
 209   14:50   0.69   59.2    23    8.6   117     16.9    720.0 
 209   15:00   0.67   58.1    24    8.6   103     15.1    720.0 
 209   15:10   0.65   59.1    23    3.7    83      9.4    720.0 
 209   15:20   0.62   59.3    23    5.8   109     15.5    720.0 
 209   15:30   0.60   59.2    23    6.6   102     15.3    720.0 
 209   15:40   0.57   59.3    23    7.8    96     16.4    720.1 
 209   15:50   0.55   58.9    23    7.5    73     14.8    720.1 
 209   16:00   0.52   59.4    23    9.0    95     14.9    720.1 
 209   16:10   0.50   59.1    22    6.7    60     11.7    720.2 
 209   16:20   0.47   58.8    23    9.4    81     14.8    720.2 
 209   16:30   0.45   58.4    23    9.2    99     13.9    720.1 
 209   16:40   0.42   58.5    22   10.1    83     16.5    720.1 
 209   16:50   0.39   58.3    22    7.3    76     11.7    720.1 
 209   17:00   0.36   58.2    22    6.6    63     10.7    720.1 
 209   17:10   0.33   58.4    22    8.1    33     12.8    720.1 
 209   17:20   0.31   58.2    22    9.1    31     15.7    720.2 
 209   17:30   0.28   58.0    23    7.9    36     13.9    720.2 
 209   17:40   0.25   57.9    22    9.5    24     16.2    720.2 
 209   17:50   0.22   57.3    23   12.5    34     18.6    720.2 
 209   18:00   0.20   57.7    22    9.9    19     15.8    720.2 
 209   18:10   0.17   56.9    23   14.6    28     21.2    720.2 
 209   18:20   0.14   56.7    23   12.6    25     17.9    720.2 
 209   18:30   0.12   56.6    23   12.3    27     18.1    720.2 
 209   18:40   0.09   56.1    23   13.3    35     18.9    720.3 
 209   18:50   0.06   55.8    23   14.0    35     19.6    720.3 
 209   19:00   0.03   55.3    24   14.4    51     20.1    720.4 
 209   19:10   0.01   54.8    24   15.9    62     20.6    720.4 
 209   19:20   0.00   54.7    24   16.8    67     23.8    720.4 
 209   19:30   0.00   54.6    24   18.1    71     23.3    720.4 
 209   19:40   0.00   54.2    24   17.2    82     23.0    720.5 
 209   19:50   0.00   53.8    24   16.4    82     22.3    720.5 
 209   20:00   0.00   53.9    24   17.0    84     23.0    720.5 
 209   20:10   0.00   53.8    24   14.3    82     19.6    720.6 
 209   20:20   0.00   53.5    24   14.7    83     20.3    720.7 
 209   20:30   0.00   53.5    24   15.4    81     20.1    720.8 
 209   20:40   0.00   53.4    24   15.0    75     20.7    720.9 
 209   20:50   0.00   53.1    24   16.3    76     21.9    720.9 
 209   21:00   0.00   53.0    25   17.2    76     23.2    721.0 
 209   21:10   0.00   53.0    25   18.8    68     23.6    721.1 
 209   21:20   0.00   53.0    26   17.0    69     23.1    721.1 
 209   21:30   0.00   52.7    26   17.2    69     23.2    721.2 
 209   21:40   0.00   52.6    26   18.4    70     22.9    721.1 
 209   21:50   0.00   52.6    26   18.2    71     23.0    721.1 
 209   22:00   0.00   52.5    26   16.9    73     22.5    721.1 
 209   22:10   0.00   52.4    26   17.1    76     26.1    721.1 
 209   22:20   0.00   52.5    26   16.5    80     23.9    721.1 
 209   22:30   0.00   52.4    26   20.1    71     27.1    721.0 
 209   22:40   0.00   52.3    26   19.7    73     26.3    721.0 
 209   22:50   0.00   52.2    26   19.5    76     25.6    721.0 
 209   23:00   0.00   52.3    26   19.4    70     29.9    721.0 
 209   23:10   0.00   51.9    27   17.4    71     23.9    721.0 
 209   23:20   0.00   51.8    27   16.4    67     22.9    721.0 
 209   23:30   0.00   51.5    26   16.1    71     22.3    721.1 
 209   23:40   0.00   51.7    26   15.4    71     20.8    721.0 
 209   23:50   0.00   51.6    26   15.8    77     21.6    721.0 
 210    0:00   0.00   51.5    26   16.4    78     21.2    721.0 
 210    0:10   0.00   51.3    25   16.3    80     20.4    721.0 
 210    0:20   0.00   51.5    24   17.0    88     22.3    721.0 
 210    0:30   0.00   51.6    22   17.6    90     23.9    721.0 
 210    0:40   0.00   51.7    22   18.0    89     25.0    720.9 
 210    0:50   0.00   51.7    22   16.6    90     22.4    720.9 
 210    1:00   0.00   51.7    22   17.8    90     24.4    720.8 
 210    1:10   0.00   51.5    22   18.3    89     24.1    720.8 
 210    1:20   0.00   51.3    22   17.9    92     23.3    720.8 
 210    1:30   0.00   51.2    22   18.5    90     24.9    720.8 
 210    1:40   0.00   51.1    22   17.9    91     22.8    720.8 
 210    1:50   0.00   51.2    22   16.8    91     23.2    720.8 
 210    2:00   0.00   51.4    22   15.0    92     20.4    720.8 
 210    2:10   0.00   51.2    23   14.5    94     22.1    720.8 
 210    2:20   0.00   51.2    23   13.8    98     19.6    720.8 
 210    2:30   0.00   51.4    22   14.6   103     20.1    720.8 
 210    2:40   0.00   51.4    22   14.2   101     20.0    720.8 
 210    2:50   0.00   51.1    22   13.1    95     18.7    720.7 
 210    3:00   0.00   51.0    21   14.8    96     18.8    720.7 
 210    3:10   0.00   51.0    21   14.5    97     20.3    720.8 
 210    3:20   0.00   50.9    21   14.4   102     20.4    720.8 
 210    3:30   0.00   50.7    21   15.3    99     20.4    720.8 
 210    3:40   0.00   50.5    20   16.6    97     23.5    720.7 
 210    3:50   0.00   50.3    20   17.0    94     21.9    720.8 
 210    4:00   0.00   50.1    20   16.2    95     21.2    720.8 
 210    4:10   0.00   50.2    19   16.2    91     20.3    720.8 
 210    4:20   0.00   50.5    19   15.3    92     19.9    720.8 
 210    4:30   0.00   50.6    19   12.4    98     18.1    720.9 
 210    4:40   0.00   50.5    20   12.5   104     17.5    720.9 
 210    4:50   0.00   50.7    20   11.8    91     16.8    721.0 
 210    5:00   0.00   50.4    20   10.4    95     15.1    721.0 
 210    5:10   0.01   50.9    20    9.9    94     12.7    721.0 
 210    5:20   0.03   51.5    20   10.7    88     14.4    721.1 
 210    5:30   0.05   51.9    19   10.8    92     14.6    721.2 
 210    5:40   0.07   52.1    19   11.2    93     14.4    721.2 
 210    5:50   0.11   52.1    19   11.0    97     14.0    721.3 
 210    6:00   0.13   52.5    20    8.7    98     12.7    721.3 
 210    6:10   0.16   53.0    20    9.0   102     12.0    721.4 
 210    6:20   0.18   53.7    20    8.5    99     11.3    721.5 
 210    6:30   0.21   54.4    20    8.7   108     11.6    721.5 
 210    6:40   0.24   54.6    20    8.4   109     11.8    721.6 
 210    6:50   0.27   55.3    21    8.3   118     12.4    721.6 
 210    7:00   0.29   56.1    20    6.8   122     10.8    721.7 
 210    7:10   0.32   56.7    20    6.0   119      9.8    721.8 
 210    7:20   0.35   57.9    20    6.2   133      8.9    721.8 
 210    7:30   0.38   58.3    19    6.5   134     10.2    721.9 
 210    7:40   0.40   58.9    20    5.8   134      9.8    721.9 
 210    7:50   0.43   59.6    19    5.9   139     10.2    722.0 
 210    8:00   0.46   59.7    19    7.3   137     12.1    722.0 
 210    8:10   0.48   59.3    20    6.5   143     11.3    722.1 
 210    8:20   0.51   60.1    20    7.4   144     11.5    722.1 
 210    8:30   0.54   60.4    20    7.6   141     12.6    722.1 
 210    8:40   0.56   60.3    19    8.1   127     13.5    722.2 
 210    8:50   0.58   59.3    20    6.4   120     12.9    722.2 
 210    9:00   0.61   60.2    20    5.3   131     12.2    722.2 
 210    9:10   0.63   60.6    20    6.2   138     11.1    722.3 
 210    9:20   0.66   60.9    20    4.9   133     11.8    722.3 
 210    9:30   0.68   61.3    19    5.6   119     11.3    722.3 
 210    9:40   0.69   60.6    19    8.1   126     13.1    722.4 
 210    9:50   0.71   61.6    18    4.4   152     10.2    722.4 
 210   10:00   0.73   61.8    18    6.2   140     12.3    722.5 
 210   10:10   0.75   61.3    18    5.5   143     10.4    722.5 
 210   10:20   0.76   62.3    18    3.7   137      9.2    722.6 
 210   10:30   0.78   62.5    18    5.2   140     10.8    722.6 
 210   10:40   0.79   62.6    19    5.0   138     10.6    722.6 
 210   10:50   0.80   64.1    19    2.0   167      6.7    722.6 
 210   11:00   0.81   64.5    18    5.4   136     10.5    722.6 
 210   11:10   0.82   63.9    19    4.2   150     12.1    722.7 
 210   11:20   0.83   63.7    20    6.2   155     12.8    722.7 
 210   11:30   0.83   63.5    19    7.6   140     16.3    722.7 
 210   11:40   0.84   63.8    20    7.0   145     12.8    722.7 
 210   11:50   0.84   63.9    20    7.5   147     13.8    722.7 
 210   12:00   0.84   63.6    20    8.0   122     13.8    722.7 
 210   12:10   0.85   64.6    19    8.5   129     14.0    722.8 
 210   12:20   0.85   65.2    20    6.3   140     14.5    722.8 
 210   12:30   0.84   64.4    20    9.1   113     16.6    722.8 
 210   12:40   0.84   64.8    20    8.4   115     15.7    722.8 
 210   12:50   0.83   65.5    20    3.3   128      9.2    722.9 
 210   13:00   0.83   65.6    19    9.4   122     18.9    722.8 
 210   13:10   0.82   65.0    20    9.3   133     18.9    722.8 
 210   13:20   0.81   65.9    20    6.4   130     13.8    722.9 
 210   13:30   0.80   66.4    20    6.8   168     15.9    722.9 
 210   13:40   0.79   67.2    22    5.3   207     14.8    722.9 

Return to Slide Mountain graphs page.


Western Regional Climate Center,wrcc@dri.edu